Time;durP1;ratioP1;P1;durP2;ratioP2;P2;SDS_P1;SDS_P2;PMS_P1;PMS_P2;Temp;Humidity;BMP_temperature;BMP_pressure;BME280_temperature;BME280_humidity;BME280_pressure;Samples;Min_cycle;Max_cycle;Signal;HPM_P1;HPM_P2
2022/05/09 04:02:22;;;;;;;14.73;11.80;;;12.60;99.90;;;-143.14;100.00;56521.75;5095332;23;20576;-74
2022/05/09 04:04:49;;;;;;;16.03;12.53;;;12.50;99.90;;;-143.14;100.00;56521.75;4950250;29;20457;-74
2022/05/09 04:07:19;;;;;;;14.47;12.10;;;12.60;99.90;;;-143.14;100.00;56521.75;4950258;29;20857;-74
2022/05/09 04:09:46;;;;;;;14.63;12.70;;;12.50;99.90;;;-143.14;100.00;56521.75;4949793;29;20531;-73
2022/05/09 04:12:14;;;;;;;14.10;11.30;;;12.50;99.90;;;-143.14;100.00;56521.75;4949794;28;20484;-74
2022/05/09 04:17:27;;;;;;;12.20;10.87;;;12.40;99.90;;;-143.14;100.00;56521.75;4948761;29;20953;-74
2022/05/09 04:19:54;;;;;;;13.27;11.73;;;12.40;99.90;;;-143.14;100.00;56521.75;4950403;29;20809;-74
2022/05/09 04:22:21;;;;;;;14.90;11.53;;;12.40;99.90;;;-143.14;100.00;56521.75;4949239;28;20481;-74
2022/05/09 04:24:48;;;;;;;17.77;12.90;;;12.40;99.90;;;-143.14;100.00;56521.75;4949813;28;20512;-74
2022/05/09 04:27:15;;;;;;;12.90;11.60;;;12.30;99.90;;;-143.14;100.00;56521.75;4949890;29;20468;-75
2022/05/09 04:29:42;;;;;;;13.90;11.63;;;12.30;99.90;;;-143.14;100.00;56521.75;4950095;29;20511;-74
2022/05/09 04:32:09;;;;;;;16.80;12.60;;;12.30;99.90;;;-143.14;100.00;56521.75;4948246;28;20481;-74
2022/05/09 04:34:38;;;;;;;15.50;11.43;;;12.20;99.90;;;-143.14;100.00;56521.75;4949933;29;20472;-75
2022/05/09 04:37:05;;;;;;;15.13;12.10;;;12.30;99.90;;;-143.14;100.00;56521.75;4949714;29;20457;-75
2022/05/09 04:39:33;;;;;;;15.00;11.63;;;12.20;99.90;;;-143.14;100.00;56521.75;4950172;28;20453;-74
2022/05/09 04:42:00;;;;;;;15.30;13.00;;;12.20;99.90;;;-143.14;100.00;56521.75;4949722;28;20485;-74
2022/05/09 04:44:27;;;;;;;18.80;12.50;;;12.20;99.90;;;-143.14;100.00;56521.75;4949970;29;20962;-75
2022/05/09 04:46:54;;;;;;;18.50;13.07;;;12.20;99.90;;;-143.14;100.00;56521.75;4949448;29;20509;-75
2022/05/09 04:49:21;;;;;;;18.20;13.17;;;12.20;99.90;;;-143.14;100.00;56521.75;4949402;29;20497;-74
2022/05/09 04:51:50;;;;;;;14.20;12.60;;;12.30;99.90;;;-143.14;100.00;56521.75;4949784;28;20478;-65
2022/05/09 04:54:17;;;;;;;13.17;11.43;;;12.20;99.90;;;-143.14;100.00;56521.75;4949263;29;20556;-75
2022/05/09 04:56:44;;;;;;;14.67;11.90;;;12.20;99.90;;;-143.14;100.00;56521.75;4947895;29;20540;-77
2022/05/09 04:59:11;;;;;;;17.00;11.73;;;12.20;99.90;;;-143.14;100.00;56521.75;4948863;29;20464;-76
2022/05/09 05:01:38;;;;;;;15.07;12.97;;;12.20;99.90;;;-143.14;100.00;56521.75;4948413;28;20585;-76
2022/05/09 05:04:07;;;;;;;13.30;11.90;;;12.30;99.90;;;-143.14;100.00;56521.75;4947822;29;20833;-75
2022/05/09 05:06:34;;;;;;;14.07;12.57;;;12.30;99.90;;;-143.14;100.00;56521.75;4948587;29;20465;-75
2022/05/09 05:09:03;;;;;;;13.30;11.43;;;12.30;99.90;;;-143.14;100.00;56521.75;4947792;29;20516;-76
2022/05/09 05:11:33;;;;;;;14.83;12.23;;;12.40;99.90;;;-143.14;100.00;56521.75;4948481;28;20499;-75
2022/05/09 05:14:00;;;;;;;15.20;13.00;;;12.30;99.90;;;-143.14;100.00;56521.75;4947720;29;20464;-75
2022/05/09 05:19:08;;;;;;;14.80;12.50;;;12.30;99.90;;;-143.14;100.00;56521.75;4947919;29;20458;-75
2022/05/09 05:21:35;;;;;;;14.33;12.03;;;12.40;99.90;;;-143.14;100.00;56521.75;4947956;28;20488;-75
2022/05/09 05:24:04;;;;;;;15.27;12.43;;;12.40;99.90;;;-143.14;100.00;56521.75;4947672;29;20460;-75
2022/05/09 05:26:31;;;;;;;17.50;13.50;;;12.50;99.90;;;-143.14;100.00;56521.75;4947949;28;20463;-76
2022/05/09 05:28:58;;;;;;;12.90;11.67;;;12.50;99.90;;;-143.14;100.00;56521.75;4948714;29;20984;-75
2022/05/09 05:31:25;;;;;;;14.87;13.37;;;12.50;99.90;;;-143.14;100.00;56521.75;4948883;28;20485;-76
2022/05/09 05:33:52;;;;;;;17.03;13.00;;;12.50;99.90;;;-143.14;100.00;56521.75;4948503;29;20461;-76
2022/05/09 05:36:19;;;;;;;14.50;13.00;;;12.60;99.90;;;-143.14;100.00;56521.75;4949025;28;21141;-76
2022/05/09 05:38:51;;;;;;;13.67;12.03;;;12.60;99.90;;;-143.14;100.00;56521.75;4948993;29;20463;-76
2022/05/09 05:41:19;;;;;;;16.43;14.50;;;12.70;99.90;;;-143.14;100.00;56521.75;4948948;28;20480;-76
2022/05/09 05:43:47;;;;;;;15.47;12.73;;;12.70;99.90;;;-143.14;100.00;56521.75;4947746;28;20457;-76
2022/05/09 05:46:15;;;;;;;17.13;12.77;;;12.70;99.90;;;-143.14;100.00;56521.75;4948804;28;21028;-76
2022/05/09 05:48:42;;;;;;;15.23;13.70;;;12.80;99.90;;;-143.14;100.00;56521.75;4949186;29;20552;-78
2022/05/09 05:51:11;;;;;;;13.57;12.17;;;12.80;99.90;;;-143.14;100.00;56521.75;4948655;28;20966;-76
2022/05/09 05:53:40;;;;;;;15.40;13.27;;;12.80;99.90;;;-143.14;100.00;56521.75;4947972;29;20464;-76
2022/05/09 05:56:08;;;;;;;14.33;12.87;;;12.90;99.90;;;-143.14;100.00;56521.75;4948457;29;20461;-75
2022/05/09 05:58:36;;;;;;;13.90;12.40;;;12.90;99.90;;;-143.14;100.00;56521.75;4948320;28;20992;-75
2022/05/09 06:01:04;;;;;;;15.80;13.80;;;12.90;99.90;;;-143.14;100.00;56521.75;4948253;28;20478;-75
2022/05/09 06:03:31;;;;;;;16.00;12.77;;;13.00;99.90;;;-143.14;100.00;56521.75;4947406;29;20461;-77
2022/05/09 06:05:58;;;;;;;16.90;13.97;;;13.00;99.90;;;-143.14;100.00;56521.75;4948304;29;20463;-76
2022/05/09 06:08:25;;;;;;;14.23;12.03;;;13.00;99.90;;;-143.14;100.00;56521.75;4947810;29;20457;-75
2022/05/09 06:10:52;;;;;;;17.13;12.90;;;13.10;99.90;;;-143.14;100.00;56521.75;4947558;28;20901;-75
2022/05/09 06:13:19;;;;;;;14.40;12.63;;;13.10;99.90;;;-143.14;100.00;56521.75;4947390;29;20493;-76
2022/05/09 06:15:49;;;;;;;15.57;13.97;;;13.20;99.90;;;-143.14;100.00;56521.75;4948046;29;20466;-76
2022/05/09 06:18:16;;;;;;;14.77;12.93;;;13.30;99.90;;;-143.14;100.00;56521.75;4948084;28;20483;-75
2022/05/09 06:20:44;;;;;;;14.77;13.27;;;13.30;99.90;;;-143.14;100.00;56521.75;4947455;28;20565;-75
2022/05/09 06:23:16;;;;;;;15.33;13.73;;;13.40;99.90;;;-143.14;100.00;56521.75;4946868;29;20457;-75
2022/05/09 06:25:46;;;;;;;14.27;12.77;;;13.50;99.90;;;-143.14;100.00;56521.75;4947818;29;20453;-75
2022/05/09 06:28:15;;;;;;;13.60;11.90;;;13.50;99.90;;;-143.14;100.00;56521.75;4947886;29;20854;-75
2022/05/09 06:30:43;;;;;;;14.63;13.10;;;13.60;99.90;;;-143.14;100.00;56521.75;4947695;28;20501;-76
2022/05/09 06:33:12;;;;;;;16.00;12.60;;;13.60;99.90;;;-143.14;100.00;56521.75;4947096;29;20561;-75
2022/05/09 06:35:44;;;;;;;14.87;13.10;;;13.70;99.90;;;-143.14;100.00;56521.75;4947404;29;20457;-75
2022/05/09 06:38:15;;;;;;;13.27;12.00;;;13.90;99.90;;;-143.14;100.00;56521.75;4947939;29;20445;-76
2022/05/09 06:40:42;;;;;;;14.67;12.23;;;13.90;99.90;;;-143.14;100.00;56521.75;4947662;28;20484;-75
2022/05/09 06:43:10;;;;;;;13.57;12.07;;;14.00;99.90;;;-143.14;100.00;56521.75;4945377;29;20457;-76
2022/05/09 06:45:37;;;;;;;12.83;11.33;;;14.10;99.90;;;-143.14;100.00;56521.75;4946375;28;20461;-76
2022/05/09 06:48:06;;;;;;;13.70;12.30;;;14.20;99.90;;;-143.14;100.00;56521.75;4946426;29;20445;-76
2022/05/09 06:50:37;;;;;;;13.00;11.50;;;14.30;99.90;;;-143.14;100.00;56521.75;4946416;28;21001;-76
2022/05/09 06:53:04;;;;;;;12.70;11.10;;;14.40;99.90;;;-143.14;100.00;56521.75;4945880;28;20453;-76
2022/05/09 06:55:32;;;;;;;15.03;12.00;;;14.50;99.90;;;-143.14;100.00;56521.75;4945325;28;20840;-75
2022/05/09 06:57:59;;;;;;;13.57;11.77;;;14.60;99.90;;;-143.14;100.00;56521.75;4946626;28;20468;-76
2022/05/09 07:00:27;;;;;;;12.27;11.07;;;14.70;99.90;;;-143.14;100.00;56521.75;4946027;28;20741;-77
2022/05/09 07:02:54;;;;;;;12.10;10.90;;;14.80;99.90;;;-143.14;100.00;56521.75;4945534;29;20458;-76
2022/05/09 07:05:23;;;;;;;11.67;10.47;;;14.80;99.90;;;-143.14;100.00;56521.75;4946527;29;20454;-76
2022/05/09 07:07:51;;;;;;;11.27;9.83;;;15.00;99.90;;;-143.14;100.00;56521.75;4946449;29;20457;-75
2022/05/09 07:10:19;;;;;;;11.33;10.20;;;15.10;99.90;;;-143.14;100.00;56521.75;4945945;28;20801;-75
2022/05/09 07:12:49;;;;;;;14.40;10.70;;;15.20;99.90;;;-143.14;100.00;56521.75;4946731;29;20465;-76
2022/05/09 07:15:21;;;;;;;13.13;10.00;;;15.20;99.90;;;-143.14;100.00;56521.75;4946764;28;20465;-76
2022/05/09 07:17:50;;;;;;;11.90;9.90;;;15.30;99.90;;;-143.14;100.00;56521.75;4947387;29;20464;-76
2022/05/09 07:20:18;;;;;;;10.20;9.20;;;15.40;99.90;;;-143.14;100.00;56521.75;4946900;28;20458;-76
2022/05/09 07:22:45;;;;;;;9.37;8.43;;;15.50;99.90;;;-143.14;100.00;56521.75;4946175;29;20472;-76
2022/05/09 07:25:17;;;;;;;10.73;9.63;;;15.60;99.90;;;-143.14;100.00;56521.75;4946989;29;20458;-78
2022/05/09 07:27:44;;;;;;;11.27;9.30;;;15.70;99.90;;;-143.14;100.00;56521.75;4946699;29;20742;-76
2022/05/09 07:30:14;;;;;;;13.37;9.13;;;15.80;99.90;;;-143.14;100.00;56521.75;4947128;29;20527;-77
2022/05/09 07:32:41;;;;;;;10.77;8.80;;;15.90;99.90;;;-143.14;100.00;56521.75;4946456;29;21077;-76
2022/05/09 07:35:12;;;;;;;10.10;9.10;;;16.00;99.90;;;-143.14;100.00;56521.75;4946691;29;20831;-76
2022/05/09 07:37:40;;;;;;;12.00;9.60;;;16.10;99.90;;;-143.14;100.00;56521.75;4946828;29;20457;-76
2022/05/09 07:40:10;;;;;;;11.80;9.47;;;16.20;99.90;;;-143.14;100.00;56521.75;4946538;29;20846;-76
2022/05/09 07:42:41;;;;;;;9.83;8.83;;;16.30;99.90;;;-143.14;100.00;56521.75;4946069;28;20570;-77
2022/05/09 07:45:12;;;;;;;10.47;9.37;;;16.40;99.90;;;-143.14;100.00;56521.75;4946665;28;20469;-77
2022/05/09 07:47:39;;;;;;;10.70;9.60;;;16.50;99.90;;;-143.14;100.00;56521.75;4946816;29;20967;-75
2022/05/09 07:50:10;;;;;;;11.03;8.83;;;16.60;99.90;;;-143.14;100.00;56521.75;4946748;29;20583;-76
2022/05/09 07:52:37;;;;;;;9.57;8.57;;;16.70;99.90;;;-143.14;100.00;56521.75;4945823;28;20531;-77
2022/05/09 07:55:06;;;;;;;9.90;8.90;;;16.80;99.90;;;-143.14;100.00;56521.75;4946534;29;20982;-78
2022/05/09 07:57:33;;;;;;;10.37;8.73;;;17.00;99.90;;;-143.14;100.00;56521.75;4946775;28;20468;-78
2022/05/09 08:00:01;;;;;;;15.33;9.00;;;17.00;99.90;;;-143.14;100.00;56521.75;4947013;29;20463;-76
2022/05/09 08:02:28;;;;;;;12.27;9.73;;;17.10;99.90;;;-143.14;100.00;56521.75;4945923;28;20489;-77
2022/05/09 08:04:55;;;;;;;8.93;8.13;;;17.20;99.90;;;-143.14;100.00;56521.75;4946583;28;20462;-76
2022/05/09 08:07:22;;;;;;;11.83;8.60;;;17.30;99.90;;;-143.14;100.00;56521.75;4950051;29;20919;-76
2022/05/09 08:09:49;;;;;;;9.53;8.30;;;17.40;99.90;;;-143.14;100.00;56521.75;4950512;29;20457;-77
2022/05/09 08:12:16;;;;;;;10.23;9.20;;;17.50;99.90;;;-143.14;100.00;56521.75;4949335;28;20483;-76
2022/05/09 08:14:45;;;;;;;9.43;8.47;;;17.60;99.90;;;-143.14;100.00;56521.75;4950008;29;20633;-77
2022/05/09 08:17:13;;;;;;;10.63;8.23;;;17.80;99.90;;;-143.14;100.00;56521.75;4950097;29;21137;-77
2022/05/09 08:19:41;;;;;;;11.23;8.60;;;17.90;99.90;;;-143.14;100.00;56521.75;4949945;29;20464;-77
2022/05/09 08:22:08;;;;;;;9.03;8.00;;;17.90;99.90;;;-143.14;100.00;56521.75;4946046;28;20584;-78
2022/05/09 08:24:35;;;;;;;8.87;7.83;;;18.00;99.90;;;-143.14;100.00;56521.75;4929833;29;20485;-76
2022/05/09 08:27:03;;;;;;;9.83;8.50;;;18.20;99.90;;;-143.14;100.00;56521.75;4930732;29;20950;-76
2022/05/09 08:29:30;;;;;;;9.53;8.63;;;18.30;99.90;;;-143.14;100.00;56521.75;4930665;29;20552;-77
2022/05/09 08:31:57;;;;;;;9.73;8.73;;;18.40;99.90;;;-143.14;100.00;56521.75;4930155;29;20593;-76
2022/05/09 08:34:25;;;;;;;9.03;8.13;;;18.40;99.90;;;-143.14;100.00;56521.75;4929782;29;20878;-76
2022/05/09 08:36:55;;;;;;;9.80;8.40;;;18.50;99.90;;;-143.14;100.00;56521.75;4930281;29;20454;-76
2022/05/09 08:39:26;;;;;;;9.03;8.23;;;18.60;99.90;;;-143.14;100.00;56521.75;4930222;29;20959;-76
2022/05/09 08:41:59;;;;;;;9.60;7.87;;;18.70;99.90;;;-143.14;100.00;56521.75;4930038;29;20533;-76
2022/05/09 08:44:51;;;;;;;9.73;7.90;;;18.80;99.90;;;-143.14;100.00;56521.75;4930754;29;20462;-76
2022/05/09 08:48:03;;;;;;;9.87;8.87;;;18.90;99.90;;;-143.14;100.00;56521.75;4930333;29;20465;-76
2022/05/09 08:50:52;;;;;;;9.47;7.97;;;19.00;99.90;;;-143.14;100.00;56521.75;4930311;29;20493;-76
2022/05/09 08:53:24;;;;;;;8.63;7.70;;;19.20;99.90;;;-143.14;100.00;56521.75;4929484;29;20543;-77
2022/05/09 08:55:53;;;;;;;8.40;7.47;;;19.20;99.90;;;-143.14;100.00;56521.75;4930361;29;21093;-77
2022/05/09 08:58:37;;;;;;;14.30;9.33;;;19.30;99.90;;;-143.14;100.00;56521.75;4930281;29;20550;-77
2022/05/09 09:01:12;;;;;;;10.23;8.17;;;19.40;99.90;;;-143.14;100.00;56521.75;4930317;29;20485;-77
2022/05/09 09:03:46;;;;;;;9.60;7.60;;;19.50;99.90;;;-143.14;100.00;56521.75;4929516;29;20446;-77
2022/05/09 09:06:36;;;;;;;8.97;6.83;;;19.50;99.90;;;-143.14;100.00;56521.75;4930220;29;20832;-76
2022/05/09 09:09:18;;;;;;;7.60;6.90;;;19.70;99.90;;;-143.14;100.00;56521.75;4929340;29;20757;-77
2022/05/09 09:11:56;;;;;;;8.40;7.60;;;19.70;99.90;;;-143.14;100.00;56521.75;4928456;29;20501;-76
2022/05/09 09:14:49;;;;;;;11.00;7.90;;;19.90;99.90;;;-143.14;100.00;56521.75;4930030;29;20458;-78
2022/05/09 09:17:36;;;;;;;8.47;7.67;;;20.00;99.90;;;-143.14;100.00;56521.75;4928867;29;21225;-76
2022/05/09 09:20:15;;;;;;;10.37;7.90;;;20.10;99.90;;;-143.14;100.00;56521.75;4929557;29;20453;-76
2022/05/09 09:23:05;;;;;;;8.70;7.80;;;20.30;99.90;;;-143.14;100.00;56521.75;4929514;29;20450;-76
2022/05/09 09:25:42;;;;;;;8.37;7.67;;;20.40;99.90;;;-143.14;100.00;56521.75;4929731;29;20834;-77
2022/05/09 09:28:16;;;;;;;7.87;7.07;;;20.40;99.90;;;-143.14;100.00;56521.75;4929598;29;20549;-76
2022/05/09 09:30:46;;;;;;;7.83;6.90;;;20.50;99.90;;;-143.14;100.00;56521.75;4929501;29;20506;-76
2022/05/09 09:33:18;;;;;;;8.60;7.70;;;20.60;99.90;;;-143.14;100.00;56521.75;4929523;29;20456;-76
2022/05/09 09:35:56;;;;;;;9.20;7.23;;;20.60;99.90;;;-143.14;100.00;56521.75;4929584;29;20462;-77
2022/05/09 09:38:41;;;;;;;9.40;6.93;;;20.60;99.90;;;-143.14;100.00;56521.75;4929682;29;20462;-76
2022/05/09 09:41:21;;;;;;;8.10;7.30;;;20.70;99.90;;;-143.14;100.00;56521.75;4927646;29;20488;-75
2022/05/09 09:43:56;;;;;;;7.83;7.03;;;20.80;99.90;;;-143.14;100.00;56521.75;4928336;29;20524;-74
2022/05/09 09:46:23;;;;;;;8.77;6.53;;;20.90;99.90;;;-143.14;100.00;56521.75;4928647;29;20465;-75
2022/05/09 09:49:07;;;;;;;8.57;7.20;;;21.10;99.90;;;-143.14;100.00;56521.75;4928400;29;20469;-75
2022/05/09 09:51:47;;;;;;;8.30;6.73;;;21.10;99.90;;;-143.14;100.00;56521.75;4928491;29;20509;-76
2022/05/09 09:54:21;;;;;;;6.50;5.90;;;21.30;99.90;;;-143.14;100.00;56521.75;4927827;29;20834;-74
2022/05/09 09:56:51;;;;;;;8.57;5.97;;;21.50;99.90;;;-143.14;100.00;56521.75;4929398;29;20454;-75
2022/05/09 09:59:23;;;;;;;6.50;5.80;;;21.70;99.90;;;-143.14;100.00;56521.75;4929796;29;20458;-74
2022/05/09 10:02:16;;;;;;;6.83;6.17;;;21.80;99.90;;;-143.14;100.00;56521.75;4928613;29;20498;-74
2022/05/09 10:04:44;;;;;;;6.50;5.90;;;22.00;99.90;;;-143.14;100.00;56521.75;4928944;29;20461;-75
2022/05/09 10:07:16;;;;;;;6.73;6.10;;;22.10;99.90;;;-143.14;100.00;56521.75;4929236;29;20470;-75
2022/05/09 10:10:04;;;;;;;6.87;6.20;;;22.20;99.90;;;-143.14;100.00;56521.75;4928893;29;20500;-75
2022/05/09 10:12:34;;;;;;;7.00;6.30;;;22.10;99.90;;;-143.14;100.00;56521.75;4928124;29;21510;-75
2022/05/09 10:15:04;;;;;;;6.43;5.83;;;22.10;99.90;;;-143.14;100.00;56521.75;4928791;29;20751;-73
2022/05/09 10:17:34;;;;;;;6.83;6.13;;;22.00;99.90;;;-143.14;100.00;56521.75;4927903;29;20450;-74
2022/05/09 10:20:27;;;;;;;6.83;5.97;;;22.00;99.90;;;-143.14;100.00;56521.75;4929120;29;20520;-75
2022/05/09 10:26:03;;;;;;;6.80;6.20;;;22.20;99.90;;;-143.14;100.00;56521.75;4929170;29;20497;-75
2022/05/09 10:28:36;;;;;;;7.50;6.40;;;22.30;99.90;;;-143.14;100.00;56521.75;4928939;29;20462;-72
2022/05/09 10:31:24;;;;;;;7.23;5.43;;;22.30;99.90;;;-143.14;100.00;56521.75;4928867;29;20866;-73
2022/05/09 10:34:01;;;;;;;6.73;6.07;;;22.30;99.90;;;-143.14;100.00;56521.75;4928293;29;20454;-72
2022/05/09 10:36:37;;;;;;;5.60;5.10;;;22.40;99.90;;;-143.14;100.00;56521.75;4929059;29;20520;-72
2022/05/09 10:39:12;;;;;;;6.60;6.00;;;22.40;99.90;;;-143.14;100.00;56521.75;4928960;29;20488;-73
2022/05/09 10:41:46;;;;;;;6.10;5.50;;;22.40;99.90;;;-143.14;100.00;56521.75;4928520;29;20527;-73
2022/05/09 10:44:22;;;;;;;7.73;5.83;;;22.50;99.90;;;-143.14;100.00;56521.75;4926970;29;20835;-76
2022/05/09 10:46:53;;;;;;;7.63;5.40;;;22.60;99.90;;;-143.14;100.00;56521.75;4927860;29;20553;-76
2022/05/09 10:49:33;;;;;;;6.10;5.50;;;22.80;99.90;;;-143.14;100.00;56521.75;4927743;29;20573;-75
2022/05/09 10:52:20;;;;;;;8.17;6.03;;;22.80;99.90;;;-143.14;100.00;56521.75;4926589;29;21061;-69
2022/05/09 10:54:56;;;;;;;6.73;5.43;;;22.80;99.90;;;-143.14;100.00;56521.75;4927448;29;20490;-75
2022/05/09 10:57:40;;;;;;;7.03;5.73;;;22.90;99.90;;;-143.14;100.00;56521.75;4927357;29;20490;-75
2022/05/09 11:00:12;;;;;;;5.53;5.03;;;22.90;99.90;;;-143.14;100.00;56521.75;4927434;29;20951;-75
2022/05/09 11:02:43;;;;;;;6.93;5.13;;;22.90;99.90;;;-143.14;100.00;56521.75;4925803;29;20514;-75
2022/05/09 11:05:11;;;;;;;6.70;5.33;;;22.90;99.90;;;-143.14;100.00;56521.75;4927259;29;21006;-75
2022/05/09 11:07:51;;;;;;;9.20;5.70;;;22.90;99.90;;;-143.14;100.00;56521.75;4927193;29;20458;-75
2022/05/09 11:10:33;;;;;;;5.10;4.60;;;22.90;99.90;;;-143.14;100.00;56521.75;4927560;29;20545;-75
2022/05/09 11:13:29;;;;;;;5.20;4.70;;;22.90;99.90;;;-143.14;100.00;56521.75;4927205;29;20498;-75
2022/05/09 11:16:20;;;;;;;5.43;4.80;;;23.10;99.90;;;-143.14;100.00;56521.75;4924760;29;20482;-76
2022/05/09 11:19:29;;;;;;;5.60;4.43;;;23.10;99.90;;;-143.14;100.00;56521.75;4928307;29;20473;-76
2022/05/09 11:22:07;;;;;;;5.17;4.67;;;23.20;99.90;;;-143.14;100.00;56521.75;4927581;29;20478;-75
2022/05/09 11:25:02;;;;;;;4.40;4.00;;;23.40;99.90;;;-143.14;100.00;56521.75;4928195;29;20458;-76
2022/05/09 11:27:47;;;;;;;4.60;4.07;;;23.60;99.90;;;-143.14;100.00;56521.75;4928170;29;20463;-76
2022/05/09 11:30:31;;;;;;;5.13;3.83;;;23.80;99.90;;;-143.14;100.00;56521.75;4928373;29;20469;-76
2022/05/09 11:33:20;;;;;;;5.13;4.63;;;23.80;99.90;;;-143.14;100.00;56521.75;4927306;29;21029;-76
2022/05/09 11:35:56;;;;;;;5.57;4.27;;;23.90;99.90;;;-143.14;100.00;56521.75;4927946;29;20545;-76
2022/05/09 11:38:49;;;;;;;5.00;4.50;;;24.10;99.90;;;-143.14;100.00;56521.75;4928347;29;20456;-75
2022/05/09 11:41:36;;;;;;;4.97;4.17;;;24.20;99.90;;;-143.14;100.00;56521.75;4930447;29;20538;-76
2022/05/09 11:44:18;;;;;;;4.80;3.97;;;24.30;99.90;;;-143.14;100.00;56521.75;4931061;29;20458;-77
2022/05/09 11:47:22;;;;;;;5.70;4.07;;;24.20;99.90;;;-143.14;100.00;56521.75;4932116;29;20456;-76
2022/05/09 11:50:21;;;;;;;4.83;4.33;;;24.20;99.90;;;-143.14;100.00;56521.75;4927942;29;20985;-76
2022/05/09 11:52:48;;;;;;;5.37;4.77;;;24.20;99.90;;;-143.14;100.00;56521.75;4930957;29;21198;-76
2022/05/09 11:55:20;;;;;;;7.77;4.40;;;24.30;99.90;;;-143.14;100.00;56521.75;4931392;29;20458;-75
2022/05/09 11:57:55;;;;;;;6.00;4.47;;;24.40;99.90;;;-143.14;100.00;56521.75;4931911;29;20493;-76
2022/05/09 12:00:48;;;;;;;5.00;4.50;;;24.40;99.90;;;-143.14;100.00;56521.75;4931095;29;20465;-75
2022/05/09 12:04:06;;;;;;;6.30;4.37;;;24.50;99.90;;;-143.14;100.00;56521.75;4928554;29;21006;-76
2022/05/09 12:06:42;;;;;;;4.53;4.13;;;24.60;99.90;;;-143.14;100.00;56521.75;4931642;29;20472;-77
2022/05/09 12:09:13;;;;;;;5.40;4.40;;;24.60;99.90;;;-143.14;100.00;56521.75;4929766;29;20462;-76
2022/05/09 12:11:53;;;;;;;6.07;4.43;;;24.70;99.90;;;-143.14;100.00;56521.75;4930451;29;20541;-77
2022/05/09 12:14:44;;;;;;;4.97;4.47;;;24.70;99.90;;;-143.14;100.00;56521.75;4930361;29;20454;-76
2022/05/09 12:17:36;;;;;;;6.00;4.67;;;24.70;99.90;;;-143.14;100.00;56521.75;4930482;29;20458;-76
2022/05/09 12:20:09;;;;;;;7.63;5.20;;;24.80;99.90;;;-143.14;100.00;56521.75;4930409;29;20469;-76
2022/05/09 12:22:44;;;;;;;8.50;5.40;;;24.80;99.90;;;-143.14;100.00;56521.75;4929363;29;20533;-77
2022/05/09 12:25:35;;;;;;;5.90;4.20;;;24.80;99.90;;;-143.14;100.00;56521.75;4930603;29;20548;-76
2022/05/09 12:28:07;;;;;;;4.97;4.33;;;24.80;99.90;;;-143.14;100.00;56521.75;4930676;29;20466;-76
2022/05/09 12:30:47;;;;;;;9.10;4.90;;;24.70;99.90;;;-143.14;100.00;56521.75;4929885;29;20983;-73
2022/05/09 12:33:25;;;;;;;6.60;4.60;;;24.70;99.90;;;-143.14;100.00;56521.75;4928078;29;20589;-76
2022/05/09 12:35:58;;;;;;;5.60;4.40;;;24.80;99.90;;;-143.14;100.00;56521.75;4930202;29;20541;-77
2022/05/09 12:38:31;;;;;;;6.80;4.70;;;24.80;99.90;;;-143.14;100.00;56521.75;4929775;29;20458;-76
2022/05/09 12:41:01;;;;;;;8.20;4.63;;;24.90;99.90;;;-143.14;100.00;56521.75;4930316;29;20736;-77
2022/05/09 12:43:31;;;;;;;6.87;4.90;;;25.00;99.90;;;-143.14;100.00;56521.75;4929557;29;20457;-77
2022/05/09 12:46:00;;;;;;;4.73;4.33;;;25.10;99.90;;;-143.14;100.00;56521.75;4929834;29;20461;-75
2022/05/09 12:48:29;;;;;;;5.87;4.30;;;25.20;99.90;;;-143.14;100.00;56521.75;4930082;29;20468;-76
2022/05/09 12:51:05;;;;;;;7.03;4.33;;;25.30;99.90;;;-143.14;100.00;56521.75;4929700;29;20510;-77
2022/05/09 12:53:36;;;;;;;5.23;3.80;;;25.40;99.90;;;-143.14;100.00;56521.75;4928228;29;20498;-76
2022/05/09 12:56:14;;;;;;;4.80;4.00;;;25.50;99.90;;;-143.14;100.00;56521.75;4929726;29;20561;-77
2022/05/09 12:58:45;;;;;;;4.60;4.20;;;25.60;99.90;;;-143.14;100.00;56521.75;4929334;29;20454;-76
2022/05/09 13:01:17;;;;;;;6.57;4.53;;;25.60;99.90;;;-143.14;100.00;56521.75;4929373;29;20589;-77
2022/05/09 13:03:48;;;;;;;8.13;4.40;;;25.60;99.90;;;-143.14;100.00;56521.75;4929046;29;20457;-76
2022/05/09 13:06:20;;;;;;;6.73;4.13;;;25.60;99.90;;;-143.14;100.00;56521.75;4929815;29;20459;-76
2022/05/09 13:08:49;;;;;;;5.60;3.97;;;25.70;99.90;;;-143.14;100.00;56521.75;4929657;29;20463;-77
2022/05/09 13:11:21;;;;;;;4.40;4.00;;;25.70;99.90;;;-143.14;100.00;56521.75;4929693;29;20482;-76
2022/05/09 13:14:07;;;;;;;5.43;4.37;;;25.70;99.90;;;-143.14;100.00;56521.75;4929242;29;20505;-76
2022/05/09 13:16:39;;;;;;;6.30;4.40;;;25.70;99.90;;;-143.14;100.00;56521.75;4929865;29;20446;-77
2022/05/09 13:19:07;;;;;;;6.53;4.33;;;25.70;99.90;;;-143.14;100.00;56521.75;4930748;29;20542;-76
2022/05/09 13:21:39;;;;;;;7.47;3.93;;;25.80;99.90;;;-143.14;100.00;56521.75;4929450;29;20857;-71
2022/05/09 13:24:09;;;;;;;14.03;6.73;;;25.70;99.90;;;-143.14;100.00;56521.75;4928554;29;20469;-70
2022/05/09 13:26:49;;;;;;;4.87;4.40;;;25.70;99.90;;;-143.14;100.00;56521.75;4931377;29;20454;-70
2022/05/09 13:29:27;;;;;;;8.20;5.17;;;25.80;99.90;;;-143.14;100.00;56521.75;4931813;29;20458;-70
2022/05/09 13:31:56;;;;;;;4.63;4.23;;;25.90;99.90;;;-143.14;100.00;56521.75;4932203;29;20537;-71
2022/05/09 13:34:29;;;;;;;5.63;4.40;;;26.10;99.90;;;-143.14;100.00;56521.75;4931344;29;20459;-70
2022/05/09 13:37:00;;;;;;;5.20;4.20;;;26.00;99.90;;;-143.14;100.00;56521.75;4932033;29;20470;-70
2022/05/09 13:39:36;;;;;;;6.60;4.67;;;26.00;99.90;;;-143.14;100.00;56521.75;4931540;29;20462;-70
2022/05/09 13:42:17;;;;;;;6.73;4.47;;;26.00;99.90;;;-143.14;100.00;56521.75;4929769;29;20479;-70
2022/05/09 13:44:48;;;;;;;5.97;4.27;;;26.00;99.90;;;-143.14;100.00;56521.75;4929689;29;20446;-70
2022/05/09 13:47:19;;;;;;;4.60;4.20;;;26.00;99.90;;;-143.14;100.00;56521.75;4929765;29;20905;-73
2022/05/09 13:49:51;;;;;;;6.87;4.20;;;26.10;99.90;;;-143.14;100.00;56521.75;4929696;29;20541;-70
2022/05/09 13:52:29;;;;;;;4.73;4.10;;;26.10;99.90;;;-143.14;100.00;56521.75;4928836;29;20502;-69
2022/05/09 13:55:00;;;;;;;6.70;4.03;;;26.10;99.90;;;-143.14;100.00;56521.75;4929503;29;20466;-70
2022/05/09 13:57:35;;;;;;;4.50;4.10;;;26.10;99.90;;;-143.14;100.00;56521.75;4929564;29;20476;-70
2022/05/09 14:00:12;;;;;;;4.93;4.20;;;26.10;99.90;;;-143.14;100.00;56521.75;4929719;29;20569;-69
2022/05/09 14:02:40;;;;;;;5.13;4.40;;;26.20;99.90;;;-143.14;100.00;56521.75;4928621;29;20478;-69
2022/05/09 14:05:14;;;;;;;6.53;4.20;;;26.30;99.90;;;-143.14;100.00;56521.75;4929430;29;20473;-70
2022/05/09 14:07:46;;;;;;;4.63;4.10;;;26.40;99.90;;;-143.14;100.00;56521.75;4929123;29;21052;-72
2022/05/09 14:10:28;;;;;;;5.50;4.10;;;26.40;99.90;;;-143.14;100.00;56521.75;4929398;29;20462;-71
2022/05/09 14:12:57;;;;;;;5.63;4.00;;;26.50;99.90;;;-143.14;100.00;56521.75;4929168;29;20502;-78
2022/05/09 14:15:30;;;;;;;5.83;4.17;;;26.50;99.90;;;-143.14;100.00;56521.75;4930362;29;20465;-77
2022/05/09 14:18:06;;;;;;;4.30;3.90;;;26.60;99.90;;;-143.14;100.00;56521.75;4927672;29;20576;-75
2022/05/09 14:20:38;;;;;;;5.90;4.20;;;26.50;99.90;;;-143.14;100.00;56521.75;4928305;29;20813;-77
2022/05/09 14:23:12;;;;;;;4.90;4.50;;;26.50;99.90;;;-143.14;100.00;56521.75;4932350;29;20464;-77
2022/05/09 14:31:43;;;;;;;5.00;4.30;;;26.60;99.90;;;-143.14;100.00;56521.75;4947139;28;20847;-76
2022/05/09 14:34:31;;;;;;;4.67;4.17;;;26.70;99.90;;;-143.14;100.00;56521.75;4946402;28;20505;-76
2022/05/09 14:37:20;;;;;;;4.73;4.17;;;26.70;99.90;;;-143.14;100.00;56521.75;4947313;28;20490;-77